Alton, Maine
Current Conditions -  °F | °C
As of 12:53 PM on Monday 24 Nov 2014 (Local Time) from KBGR Reporting Station
Light Rain Light Rain  
Wind Chill: 57°   Ceiling: 1000
Heat Index: 57°   Visibility: 1.5mi
Dew Point: 55°   Wind: 21mph
Humidity: 93%   Direction: 180°S
Pressure: 29.66"   Gusts: 32mph
Location:  45.0236°N, 68.7394°W
Report Text: KBGR 241753Z 18018G28KT 1 1/2SM R15/6000VP6000FT -RA BR BKN010 OVC013 14/13 A2966 RMK AO2 PK WND 17028/1748 CIG 006V012 SLP045 P0012 60037 T01390128 10139 20083 56061
Loading
Personal Weather Stations






























Interactive Weather Map New forecast layout! Learn more

10-Day Weather Forecast

Advertisements
Track Severe Weather on mobile